createdAt,value
2022-11-10T00:04:25.539Z,99.99
2022-11-10T00:09:25.448Z,99.99
2022-11-10T00:14:25.376Z,99.99
2022-11-10T00:19:25.320Z,99.99
2022-11-10T00:24:25.269Z,99.99
2022-11-10T00:29:25.221Z,99.99
2022-11-10T00:34:25.139Z,99.99
2022-11-10T00:39:25.069Z,99.99
2022-11-10T00:44:25.012Z,99.99
2022-11-10T00:49:24.948Z,99.99
2022-11-10T00:54:24.904Z,99.99
2022-11-10T00:59:24.820Z,99.99
2022-11-10T01:04:24.770Z,99.99
2022-11-10T01:09:24.703Z,99.99
2022-11-10T01:14:24.632Z,99.99
2022-11-10T01:19:24.604Z,99.99
2022-11-10T01:24:24.520Z,99.99
2022-11-10T01:29:24.453Z,99.99
2022-11-10T01:34:24.392Z,99.99
2022-11-10T01:39:24.338Z,99.99
2022-11-10T01:44:24.284Z,99.99
2022-11-10T01:49:24.202Z,99.99
2022-11-10T01:54:24.135Z,99.99
2022-11-10T01:59:24.084Z,99.99
2022-11-10T02:04:24.024Z,99.99
2022-11-10T02:09:23.956Z,99.99
2022-11-10T02:14:23.914Z,99.99
2022-11-10T02:19:23.831Z,99.99
2022-11-10T02:24:23.775Z,99.99
2022-11-10T02:29:23.723Z,99.99
2022-11-10T02:34:23.656Z,99.99
2022-11-10T02:39:23.586Z,99.99
2022-11-10T02:44:23.531Z,99.99
2022-11-10T02:49:23.467Z,99.99
2022-11-10T02:54:23.418Z,99.99
2022-11-10T02:59:23.346Z,99.99
2022-11-10T03:04:23.278Z,99.99
2022-11-10T03:09:23.228Z,99.99
2022-11-10T03:14:23.162Z,99.99
2022-11-10T03:19:23.098Z,99.99
2022-11-10T03:24:23.038Z,99.99
2022-11-10T03:29:22.979Z,99.99
2022-11-10T03:34:22.950Z,99.99
2022-11-10T03:39:22.851Z,99.99
2022-11-10T03:44:22.789Z,99.99
2022-11-10T03:49:22.712Z,99.99
2022-11-10T03:54:22.662Z,99.99
2022-11-10T03:59:22.581Z,99.99
2022-11-10T04:04:22.539Z,99.99
2022-11-10T04:09:22.472Z,99.99
2022-11-10T04:14:22.434Z,99.99
2022-11-10T04:19:22.349Z,99.99
2022-11-10T04:24:22.291Z,99.99
2022-11-10T04:29:22.224Z,99.99
2022-11-10T04:34:22.176Z,99.99
2022-11-10T04:39:22.083Z,99.99
2022-11-10T04:44:22.060Z,99.99
2022-11-10T04:49:21.983Z,99.99
2022-11-10T04:54:21.911Z,99.99
2022-11-10T04:59:21.846Z,99.99
2022-11-10T05:04:21.795Z,99.99
2022-11-10T05:09:21.749Z,99.99
2022-11-10T05:14:21.667Z,99.99
2022-11-10T05:19:21.633Z,99.99
2022-11-10T05:24:21.542Z,99.99
2022-11-10T05:29:21.480Z,99.99
2022-11-10T05:34:21.446Z,99.99
2022-11-10T05:39:21.352Z,99.99
2022-11-10T05:44:21.287Z,99.99
2022-11-10T05:49:21.229Z,99.99
2022-11-10T05:54:21.160Z,99.99
2022-11-10T05:59:21.128Z,99.99
2022-11-10T06:04:21.059Z,99.99
2022-11-10T06:09:20.997Z,99.99
2022-11-10T06:14:20.902Z,99.99
2022-11-10T06:19:20.861Z,99.99
2022-11-10T06:24:20.791Z,99.99
2022-11-10T06:29:26.459Z,99.99
2022-11-10T06:34:21.669Z,99.99
2022-11-10T06:39:20.612Z,99.99
2022-11-10T06:44:20.540Z,99.99
2022-11-10T06:49:20.473Z,99.99
2022-11-10T06:54:20.415Z,99.99
2022-11-10T06:59:20.382Z,99.99
2022-11-10T07:04:20.958Z,99.99
2022-11-10T07:09:20.235Z,99.99
2022-11-10T07:14:20.167Z,99.99
2022-11-10T07:19:20.116Z,99.99
2022-11-10T07:24:20.043Z,99.99
2022-11-10T07:29:19.960Z,99.99
2022-11-10T07:34:19.938Z,99.99
2022-11-10T07:39:19.849Z,99.99
2022-11-10T07:44:19.773Z,99.99
2022-11-10T07:49:19.703Z,99.99
2022-11-10T07:54:19.629Z,99.99
2022-11-10T07:59:19.596Z,99.99
2022-11-10T08:04:19.513Z,99.99
2022-11-10T08:09:19.447Z,99.99
2022-11-10T08:14:19.372Z,99.99
2022-11-10T08:19:19.326Z,99.99
2022-11-10T08:24:19.244Z,99.99
2022-11-10T08:29:19.198Z,99.99
2022-11-10T08:34:19.127Z,99.99
2022-11-10T08:39:37.618Z,99.99
2022-11-10T08:44:20.952Z,99.99
2022-11-10T08:49:18.954Z,99.99
2022-11-10T08:54:18.879Z,99.99
2022-11-10T08:59:18.817Z,99.99
2022-11-10T09:04:18.897Z,99.99
2022-11-10T09:09:18.717Z,99.99
2022-11-10T09:14:18.630Z,99.99
2022-11-10T09:19:20.051Z,99.99
2022-11-10T09:24:18.519Z,99.99
2022-11-10T09:29:18.442Z,99.99
2022-11-10T09:34:18.378Z,99.99
2022-11-10T09:39:18.322Z,99.99
2022-11-10T09:44:18.275Z,99.99
2022-11-10T09:49:18.202Z,99.99
2022-11-10T09:54:18.122Z,99.99
2022-11-10T09:59:18.082Z,99.99
2022-11-10T10:04:18.022Z,99.80
2022-11-10T10:09:17.948Z,99.91
2022-11-10T10:14:17.887Z,99.99
2022-11-10T10:19:17.832Z,98.94
2022-11-10T10:24:21.808Z,96.61
2022-11-10T10:29:17.737Z,97.38
2022-11-10T10:34:17.712Z,93.76
2022-11-10T10:39:17.621Z,94.88
2022-11-10T10:44:17.548Z,94.68
2022-11-10T10:49:32.714Z,95.69
2022-11-10T10:54:18.439Z,95.24
2022-11-10T10:59:17.328Z,93.10
2022-11-10T11:04:17.259Z,94.08
2022-11-10T11:09:17.203Z,92.91
2022-11-10T11:14:17.132Z,93.43
2022-11-10T11:19:17.081Z,91.14
2022-11-10T11:24:17.019Z,93.03
2022-11-10T11:29:16.968Z,91.96
2022-11-10T11:34:16.891Z,91.35
2022-11-10T11:39:16.839Z,91.86
2022-11-10T11:44:16.744Z,90.74
2022-11-10T11:49:16.691Z,89.58
2022-11-10T11:54:16.623Z,87.40
2022-11-10T11:59:16.564Z,87.10
2022-11-10T12:04:16.504Z,85.74
2022-11-10T12:09:16.450Z,86.00
2022-11-10T12:14:16.375Z,85.46
2022-11-10T12:19:16.319Z,83.33
2022-11-10T12:24:16.251Z,82.50
2022-11-10T12:29:16.194Z,84.36
2022-11-10T12:34:16.134Z,84.36
2022-11-10T12:39:16.066Z,83.81
2022-11-10T12:44:16.007Z,82.64
2022-11-10T12:49:15.949Z,83.45
2022-11-10T12:54:16.965Z,84.05
2022-11-10T12:59:15.838Z,83.54
2022-11-10T13:04:15.766Z,83.45
2022-11-10T13:09:15.719Z,82.12
2022-11-10T13:14:15.639Z,81.41
2022-11-10T13:19:15.589Z,82.12
2022-11-10T13:24:15.530Z,84.22
2022-11-10T13:29:15.472Z,83.87
2022-11-10T13:34:15.402Z,82.96
2022-11-10T13:39:15.344Z,83.17
2022-11-10T13:44:15.272Z,82.45
2022-11-10T13:49:15.862Z,83.26
2022-11-10T13:54:15.144Z,83.31
2022-11-10T13:59:15.109Z,83.95
2022-11-10T14:04:15.057Z,84.56
2022-11-10T14:09:14.985Z,84.12
2022-11-10T14:14:14.924Z,84.93
2022-11-10T14:19:14.848Z,84.83
2022-11-10T14:24:14.767Z,84.93
2022-11-10T14:29:14.718Z,84.72
2022-11-10T14:34:14.648Z,85.13
2022-11-10T14:39:14.592Z,85.47
2022-11-10T14:44:14.520Z,86.90
2022-11-10T14:49:14.504Z,87.51
2022-11-10T14:54:14.408Z,88.42
2022-11-10T14:59:14.352Z,88.82
2022-11-10T15:04:14.283Z,89.48
2022-11-10T15:09:15.045Z,89.88
2022-11-10T15:14:14.173Z,90.09
2022-11-10T15:19:14.104Z,90.33
2022-11-10T15:24:14.049Z,90.33
2022-11-10T15:29:14.007Z,91.09
2022-11-10T15:34:13.926Z,91.49
2022-11-10T15:39:13.917Z,92.09
2022-11-10T15:44:13.837Z,93.05
2022-11-10T15:49:13.762Z,94.21
2022-11-10T15:54:13.677Z,94.72
2022-11-10T15:59:13.612Z,94.72
2022-11-10T16:04:13.554Z,95.17
2022-11-10T16:09:13.498Z,95.62
2022-11-10T16:14:13.440Z,96.89
2022-11-10T16:19:13.360Z,97.75
2022-11-10T16:24:13.322Z,98.66
2022-11-10T16:29:13.260Z,98.25
2022-11-10T16:34:13.219Z,99.52
2022-11-10T16:39:13.137Z,99.99
2022-11-10T16:44:13.053Z,99.99
2022-11-10T16:49:12.994Z,99.99
2022-11-10T16:54:12.941Z,99.99
2022-11-10T16:59:12.878Z,99.99
2022-11-10T17:04:12.825Z,99.99
2022-11-10T17:09:12.745Z,99.99
2022-11-10T17:14:12.678Z,99.99
2022-11-10T17:19:12.624Z,99.99
2022-11-10T17:24:12.553Z,99.99
2022-11-10T17:29:12.490Z,99.99
2022-11-10T17:34:12.427Z,99.99
2022-11-10T17:39:12.386Z,99.99
2022-11-10T17:44:12.312Z,99.99
2022-11-10T17:49:12.263Z,99.99
2022-11-10T17:54:12.201Z,99.99
2022-11-10T17:59:12.120Z,99.99
2022-11-10T18:04:12.055Z,99.99
2022-11-10T18:09:11.998Z,99.99
2022-11-10T18:14:11.927Z,99.99
2022-11-10T18:19:11.898Z,99.99
2022-11-10T18:24:11.811Z,99.99
2022-11-10T18:29:11.751Z,99.99
2022-11-10T18:34:11.689Z,99.99
2022-11-10T18:39:11.630Z,99.99
2022-11-10T18:44:11.559Z,99.99
2022-11-10T18:49:11.498Z,99.99
2022-11-10T18:54:11.426Z,99.99
2022-11-10T18:59:11.359Z,99.99
2022-11-10T19:04:11.279Z,99.99
2022-11-10T19:09:11.231Z,99.99
2022-11-10T19:14:11.181Z,99.99
2022-11-10T19:19:11.089Z,99.99
2022-11-10T19:24:11.001Z,99.99
2022-11-10T19:29:10.960Z,99.99
2022-11-10T19:34:10.888Z,99.99
2022-11-10T19:39:10.820Z,99.99
2022-11-10T19:44:10.774Z,99.99
2022-11-10T19:49:10.680Z,99.99
2022-11-10T19:54:10.634Z,99.99
2022-11-10T19:59:10.540Z,99.99
2022-11-10T20:04:10.470Z,99.99
2022-11-10T20:09:10.403Z,99.99
2022-11-10T20:14:10.336Z,99.99
2022-11-10T20:19:10.282Z,99.99
2022-11-10T20:24:10.202Z,99.99
2022-11-10T20:29:10.131Z,99.99
2022-11-10T20:34:10.083Z,99.99
2022-11-10T20:39:10.033Z,99.99
2022-11-10T20:44:09.953Z,99.99
2022-11-10T20:49:09.907Z,99.99
2022-11-10T20:54:09.860Z,99.99
2022-11-10T20:59:09.793Z,99.99
2022-11-10T21:04:09.720Z,99.99
2022-11-10T21:09:09.653Z,99.99
2022-11-10T21:14:09.585Z,99.99
2022-11-10T21:19:09.559Z,99.99
2022-11-10T21:24:09.537Z,99.99
2022-11-10T21:29:09.402Z,99.99
2022-11-10T21:34:09.344Z,99.99
2022-11-10T21:39:09.312Z,99.99
2022-11-10T21:44:09.228Z,99.99
2022-11-10T21:49:09.187Z,99.99
2022-11-10T21:54:09.080Z,99.99
2022-11-10T21:59:09.044Z,99.99
2022-11-10T22:04:08.970Z,99.99
2022-11-10T22:09:08.952Z,99.99
2022-11-10T22:14:08.840Z,99.99
2022-11-10T22:19:08.811Z,99.99
2022-11-10T22:24:08.722Z,99.99
2022-11-10T22:29:08.679Z,99.99
2022-11-10T22:34:08.652Z,99.99
2022-11-10T22:39:08.577Z,99.99
2022-11-10T22:44:08.511Z,99.99
2022-11-10T22:49:08.463Z,99.99
2022-11-10T22:54:08.407Z,99.99
2022-11-10T22:59:08.332Z,99.99
2022-11-10T23:04:08.292Z,99.99
2022-11-10T23:09:08.229Z,99.99
2022-11-10T23:14:08.171Z,99.99
2022-11-10T23:19:08.131Z,99.99
2022-11-10T23:24:08.068Z,99.99
2022-11-10T23:29:08.013Z,99.99
2022-11-10T23:34:07.951Z,99.99
2022-11-10T23:39:07.903Z,99.99
2022-11-10T23:44:07.850Z,99.99
2022-11-10T23:49:07.801Z,99.99
2022-11-10T23:54:07.758Z,99.99
2022-11-10T23:59:07.700Z,99.99
